sensor_id;sensor_type;location;lat;lon;timestamp;temperature;humidity
29403;DHT22;16382;59.942;30.472;2023-03-30T00:00:55;-2.90;99.90
29403;DHT22;16382;59.942;30.472;2023-03-30T00:03:23;-3.00;99.90
29403;DHT22;16382;59.942;30.472;2023-03-30T00:05:52;-3.10;99.90
29403;DHT22;16382;59.942;30.472;2023-03-30T00:08:22;-3.20;99.90
29403;DHT22;16382;59.942;30.472;2023-03-30T00:10:58;-3.30;99.90
29403;DHT22;16382;59.942;30.472;2023-03-30T00:13:28;-3.30;99.90
29403;DHT22;16382;59.942;30.472;2023-03-30T00:15:55;-3.40;99.90
29403;DHT22;16382;59.942;30.472;2023-03-30T00:18:23;-3.40;99.90
29403;DHT22;16382;59.942;30.472;2023-03-30T00:20:51;-3.50;99.90
29403;DHT22;16382;59.942;30.472;2023-03-30T00:23:19;-3.50;99.90
29403;DHT22;16382;59.942;30.472;2023-03-30T00:25:47;-3.60;99.90
29403;DHT22;16382;59.942;30.472;2023-03-30T00:28:14;-3.60;99.90
29403;DHT22;16382;59.942;30.472;2023-03-30T00:30:43;-3.60;99.90
29403;DHT22;16382;59.942;30.472;2023-03-30T00:33:11;-3.70;99.90
29403;DHT22;16382;59.942;30.472;2023-03-30T00:35:39;-3.70;99.90
29403;DHT22;16382;59.942;30.472;2023-03-30T00:38:06;-3.70;99.90
29403;DHT22;16382;59.942;30.472;2023-03-30T00:40:35;-3.70;99.90
29403;DHT22;16382;59.942;30.472;2023-03-30T00:43:05;-3.70;99.90
29403;DHT22;16382;59.942;30.472;2023-03-30T00:45:36;-3.80;99.90
29403;DHT22;16382;59.942;30.472;2023-03-30T00:48:09;-3.80;99.90
29403;DHT22;16382;59.942;30.472;2023-03-30T00:50:43;-3.80;99.90
29403;DHT22;16382;59.942;30.472;2023-03-30T00:53:15;-3.80;99.90
29403;DHT22;16382;59.942;30.472;2023-03-30T00:55:46;-3.90;99.90
29403;DHT22;16382;59.942;30.472;2023-03-30T00:58:16;-3.90;99.90
29403;DHT22;16382;59.942;30.472;2023-03-30T01:00:45;-3.90;99.90
29403;DHT22;16382;59.942;30.472;2023-03-30T01:03:18;-3.90;99.90
29403;DHT22;16382;59.942;30.472;2023-03-30T01:05:47;-3.90;99.90
29403;DHT22;16382;59.942;30.472;2023-03-30T01:08:15;-4.00;99.90
29403;DHT22;16382;59.942;30.472;2023-03-30T01:10:45;-4.00;99.90
29403;DHT22;16382;59.942;30.472;2023-03-30T01:13:13;-4.00;99.90
29403;DHT22;16382;59.942;30.472;2023-03-30T01:15:53;-4.00;99.90
29403;DHT22;16382;59.942;30.472;2023-03-30T01:18:36;-4.00;99.90
29403;DHT22;16382;59.942;30.472;2023-03-30T01:24:44;-4.10;99.90
29403;DHT22;16382;59.942;30.472;2023-03-30T01:27:38;-4.10;99.90
29403;DHT22;16382;59.942;30.472;2023-03-30T01:30:29;-4.10;99.90
29403;DHT22;16382;59.942;30.472;2023-03-30T01:33:32;-4.20;99.90
29403;DHT22;16382;59.942;30.472;2023-03-30T01:36:43;-4.20;99.90
29403;DHT22;16382;59.942;30.472;2023-03-30T01:39:39;-4.20;99.90
29403;DHT22;16382;59.942;30.472;2023-03-30T01:42:18;-4.20;99.90
29403;DHT22;16382;59.942;30.472;2023-03-30T01:44:54;-4.30;99.90
29403;DHT22;16382;59.942;30.472;2023-03-30T01:47:34;-4.30;99.90
29403;DHT22;16382;59.942;30.472;2023-03-30T01:50:08;-4.30;99.90
29403;DHT22;16382;59.942;30.472;2023-03-30T01:52:41;-4.30;99.90
29403;DHT22;16382;59.942;30.472;2023-03-30T01:55:15;-4.40;99.90
29403;DHT22;16382;59.942;30.472;2023-03-30T01:57:48;-4.40;99.90
29403;DHT22;16382;59.942;30.472;2023-03-30T02:00:20;-4.40;99.90
29403;DHT22;16382;59.942;30.472;2023-03-30T02:02:52;-4.40;99.90
29403;DHT22;16382;59.942;30.472;2023-03-30T02:05:22;-4.40;99.90
29403;DHT22;16382;59.942;30.472;2023-03-30T02:07:54;-4.40;99.90
29403;DHT22;16382;59.942;30.472;2023-03-30T02:10:28;-4.40;99.90
29403;DHT22;16382;59.942;30.472;2023-03-30T02:12:58;-4.40;99.90
29403;DHT22;16382;59.942;30.472;2023-03-30T02:15:34;-4.40;99.90
29403;DHT22;16382;59.942;30.472;2023-03-30T02:18:03;-4.40;99.90
29403;DHT22;16382;59.942;30.472;2023-03-30T02:20:32;-4.40;99.90
29403;DHT22;16382;59.942;30.472;2023-03-30T02:23:05;-4.40;99.90
29403;DHT22;16382;59.942;30.472;2023-03-30T02:25:36;-4.40;99.90
29403;DHT22;16382;59.942;30.472;2023-03-30T02:28:04;-4.40;99.90
29403;DHT22;16382;59.942;30.472;2023-03-30T02:30:33;-4.40;99.90
29403;DHT22;16382;59.942;30.472;2023-03-30T02:33:03;-4.40;99.90
29403;DHT22;16382;59.942;30.472;2023-03-30T02:35:48;-4.40;99.90
29403;DHT22;16382;59.942;30.472;2023-03-30T02:41:43;-4.40;99.90
29403;DHT22;16382;59.942;30.472;2023-03-30T02:44:25;-4.40;99.90
29403;DHT22;16382;59.942;30.472;2023-03-30T02:47:03;-4.50;99.90
29403;DHT22;16382;59.942;30.472;2023-03-30T02:49:48;-4.50;99.90
29403;DHT22;16382;59.942;30.472;2023-03-30T02:52:32;-4.50;99.90
29403;DHT22;16382;59.942;30.472;2023-03-30T02:55:15;-4.60;99.90
29403;DHT22;16382;59.942;30.472;2023-03-30T02:57:59;-4.60;99.90
29403;DHT22;16382;59.942;30.472;2023-03-30T03:00:54;-4.60;99.90
29403;DHT22;16382;59.942;30.472;2023-03-30T03:03:34;-4.60;99.90
29403;DHT22;16382;59.942;30.472;2023-03-30T03:06:05;-4.60;99.90
29403;DHT22;16382;59.942;30.472;2023-03-30T03:08:37;-4.60;99.90
29403;DHT22;16382;59.942;30.472;2023-03-30T03:11:10;-4.70;99.90
29403;DHT22;16382;59.942;30.472;2023-03-30T03:13:39;-4.70;99.90
29403;DHT22;16382;59.942;30.472;2023-03-30T03:16:09;-4.70;99.90
29403;DHT22;16382;59.942;30.472;2023-03-30T03:18:40;-4.70;99.90
29403;DHT22;16382;59.942;30.472;2023-03-30T03:21:08;-4.70;99.90
29403;DHT22;16382;59.942;30.472;2023-03-30T03:23:36;-4.70;99.90
29403;DHT22;16382;59.942;30.472;2023-03-30T03:26:05;-4.70;99.90
29403;DHT22;16382;59.942;30.472;2023-03-30T03:28:33;-4.70;99.90
29403;DHT22;16382;59.942;30.472;2023-03-30T03:31:07;-4.80;99.90
29403;DHT22;16382;59.942;30.472;2023-03-30T03:33:35;-4.80;99.90
29403;DHT22;16382;59.942;30.472;2023-03-30T03:36:15;-4.80;99.90
29403;DHT22;16382;59.942;30.472;2023-03-30T03:38:47;-4.80;99.90
29403;DHT22;16382;59.942;30.472;2023-03-30T03:41:16;-4.80;99.90
29403;DHT22;16382;59.942;30.472;2023-03-30T03:43:44;-4.80;99.90
29403;DHT22;16382;59.942;30.472;2023-03-30T03:46:15;-4.70;99.90
29403;DHT22;16382;59.942;30.472;2023-03-30T03:48:43;-4.70;99.90
29403;DHT22;16382;59.942;30.472;2023-03-30T03:51:11;-4.70;99.90
29403;DHT22;16382;59.942;30.472;2023-03-30T03:53:38;-4.70;99.90
29403;DHT22;16382;59.942;30.472;2023-03-30T03:56:09;-4.60;99.90
29403;DHT22;16382;59.942;30.472;2023-03-30T03:58:39;-4.60;99.90
29403;DHT22;16382;59.942;30.472;2023-03-30T04:01:06;-4.60;99.90
29403;DHT22;16382;59.942;30.472;2023-03-30T04:03:35;-4.60;99.90
29403;DHT22;16382;59.942;30.472;2023-03-30T04:06:03;-4.60;99.90
29403;DHT22;16382;59.942;30.472;2023-03-30T04:08:31;-4.60;99.90
29403;DHT22;16382;59.942;30.472;2023-03-30T04:11:09;-4.60;99.90
29403;DHT22;16382;59.942;30.472;2023-03-30T04:14:04;-4.50;99.90
29403;DHT22;16382;59.942;30.472;2023-03-30T04:16:52;-4.40;99.90
29403;DHT22;16382;59.942;30.472;2023-03-30T04:19:46;-4.40;99.90
29403;DHT22;16382;59.942;30.472;2023-03-30T04:22:46;-4.30;99.90
29403;DHT22;16382;59.942;30.472;2023-03-30T04:25:21;-4.30;99.90
29403;DHT22;16382;59.942;30.472;2023-03-30T04:28:09;-4.20;99.90
29403;DHT22;16382;59.942;30.472;2023-03-30T04:30:58;-4.20;99.90
29403;DHT22;16382;59.942;30.472;2023-03-30T04:33:40;-4.20;99.90
29403;DHT22;16382;59.942;30.472;2023-03-30T04:36:36;-4.10;99.90
29403;DHT22;16382;59.942;30.472;2023-03-30T04:39:24;-4.10;99.90
29403;DHT22;16382;59.942;30.472;2023-03-30T04:41:55;-4.00;99.90
29403;DHT22;16382;59.942;30.472;2023-03-30T04:44:44;-3.90;99.90
29403;DHT22;16382;59.942;30.472;2023-03-30T04:47:25;-3.90;99.90
29403;DHT22;16382;59.942;30.472;2023-03-30T04:50:09;-3.80;99.90
29403;DHT22;16382;59.942;30.472;2023-03-30T04:52:57;-3.80;99.90
29403;DHT22;16382;59.942;30.472;2023-03-30T04:55:47;-3.70;99.90
29403;DHT22;16382;59.942;30.472;2023-03-30T04:58:41;-3.60;99.90
29403;DHT22;16382;59.942;30.472;2023-03-30T05:01:22;-3.60;99.90
29403;DHT22;16382;59.942;30.472;2023-03-30T05:04:19;-3.50;99.90
29403;DHT22;16382;59.942;30.472;2023-03-30T05:07:16;-3.50;99.90
29403;DHT22;16382;59.942;30.472;2023-03-30T05:10:07;-3.50;99.90
29403;DHT22;16382;59.942;30.472;2023-03-30T05:12:57;-3.40;99.90
29403;DHT22;16382;59.942;30.472;2023-03-30T05:15:52;-3.40;99.90
29403;DHT22;16382;59.942;30.472;2023-03-30T05:18:45;-3.40;99.90
29403;DHT22;16382;59.942;30.472;2023-03-30T05:21:31;-3.30;99.90
29403;DHT22;16382;59.942;30.472;2023-03-30T05:24:19;-3.30;99.90
29403;DHT22;16382;59.942;30.472;2023-03-30T05:26:59;-3.30;99.90
29403;DHT22;16382;59.942;30.472;2023-03-30T05:29:43;-3.30;99.90
29403;DHT22;16382;59.942;30.472;2023-03-30T05:32:36;-3.30;99.90
29403;DHT22;16382;59.942;30.472;2023-03-30T05:35:22;-3.30;99.90
29403;DHT22;16382;59.942;30.472;2023-03-30T05:38:16;-3.40;99.90
29403;DHT22;16382;59.942;30.472;2023-03-30T05:41:07;-3.30;99.90
29403;DHT22;16382;59.942;30.472;2023-03-30T05:43:54;-3.30;99.90
29403;DHT22;16382;59.942;30.472;2023-03-30T05:46:40;-3.30;99.90
29403;DHT22;16382;59.942;30.472;2023-03-30T05:49:27;-3.20;99.90
29403;DHT22;16382;59.942;30.472;2023-03-30T05:52:26;-3.20;99.90
29403;DHT22;16382;59.942;30.472;2023-03-30T05:55:13;-3.20;99.90
29403;DHT22;16382;59.942;30.472;2023-03-30T05:57:59;-3.10;99.90
29403;DHT22;16382;59.942;30.472;2023-03-30T06:00:44;-3.10;99.90
29403;DHT22;16382;59.942;30.472;2023-03-30T06:03:23;-3.00;99.90
29403;DHT22;16382;59.942;30.472;2023-03-30T06:05:52;-2.90;99.90
29403;DHT22;16382;59.942;30.472;2023-03-30T06:08:20;-2.90;99.90
29403;DHT22;16382;59.942;30.472;2023-03-30T06:10:51;-2.80;99.90
29403;DHT22;16382;59.942;30.472;2023-03-30T06:13:19;-2.70;99.90
29403;DHT22;16382;59.942;30.472;2023-03-30T06:15:51;-2.50;99.90
29403;DHT22;16382;59.942;30.472;2023-03-30T06:18:22;-2.20;99.90
29403;DHT22;16382;59.942;30.472;2023-03-30T06:20:56;-1.70;99.90
29403;DHT22;16382;59.942;30.472;2023-03-30T06:23:24;-0.90;99.90
29403;DHT22;16382;59.942;30.472;2023-03-30T06:25:57;-0.20;99.90
29403;DHT22;16382;59.942;30.472;2023-03-30T06:28:31;0.40;99.90
29403;DHT22;16382;59.942;30.472;2023-03-30T06:31:06;1.20;99.90
29403;DHT22;16382;59.942;30.472;2023-03-30T06:33:37;2.00;99.90
29403;DHT22;16382;59.942;30.472;2023-03-30T06:36:12;2.80;99.90
29403;DHT22;16382;59.942;30.472;2023-03-30T06:38:42;3.50;99.90
29403;DHT22;16382;59.942;30.472;2023-03-30T06:41:10;4.10;99.90
29403;DHT22;16382;59.942;30.472;2023-03-30T06:43:40;4.70;99.90
29403;DHT22;16382;59.942;30.472;2023-03-30T06:46:15;5.10;99.90
29403;DHT22;16382;59.942;30.472;2023-03-30T06:48:46;5.50;99.90
29403;DHT22;16382;59.942;30.472;2023-03-30T06:51:46;5.80;99.90
29403;DHT22;16382;59.942;30.472;2023-03-30T06:54:14;6.30;95.50
29403;DHT22;16382;59.942;30.472;2023-03-30T06:56:52;6.30;92.90
29403;DHT22;16382;59.942;30.472;2023-03-30T06:59:20;6.40;92.50
29403;DHT22;16382;59.942;30.472;2023-03-30T07:02:12;6.90;92.70
29403;DHT22;16382;59.942;30.472;2023-03-30T07:04:49;7.40;89.20
29403;DHT22;16382;59.942;30.472;2023-03-30T07:07:32;7.70;85.60
29403;DHT22;16382;59.942;30.472;2023-03-30T07:10:02;8.00;83.00
29403;DHT22;16382;59.942;30.472;2023-03-30T07:12:35;8.40;80.80
29403;DHT22;16382;59.942;30.472;2023-03-30T07:15:04;8.70;76.50
29403;DHT22;16382;59.942;30.472;2023-03-30T07:17:36;9.00;76.10
29403;DHT22;16382;59.942;30.472;2023-03-30T07:20:06;9.20;73.20
29403;DHT22;16382;59.942;30.472;2023-03-30T07:22:51;9.30;71.90
29403;DHT22;16382;59.942;30.472;2023-03-30T07:25:19;9.40;69.00
29403;DHT22;16382;59.942;30.472;2023-03-30T07:27:46;9.40;68.60
29403;DHT22;16382;59.942;30.472;2023-03-30T07:30:15;9.60;68.20
29403;DHT22;16382;59.942;30.472;2023-03-30T07:32:47;9.80;65.60
29403;DHT22;16382;59.942;30.472;2023-03-30T07:35:15;9.90;65.00
29403;DHT22;16382;59.942;30.472;2023-03-30T07:37:43;10.20;65.60
29403;DHT22;16382;59.942;30.472;2023-03-30T07:40:11;10.50;65.30
29403;DHT22;16382;59.942;30.472;2023-03-30T07:42:40;10.90;64.40
29403;DHT22;16382;59.942;30.472;2023-03-30T07:45:09;11.20;61.80
29403;DHT22;16382;59.942;30.472;2023-03-30T07:50:08;11.50;59.20
29403;DHT22;16382;59.942;30.472;2023-03-30T07:52:36;11.70;57.90
29403;DHT22;16382;59.942;30.472;2023-03-30T07:55:04;11.70;57.20
29403;DHT22;16382;59.942;30.472;2023-03-30T07:57:52;11.80;56.80
29403;DHT22;16382;59.942;30.472;2023-03-30T08:00:23;11.80;56.60
29403;DHT22;16382;59.942;30.472;2023-03-30T08:03:14;11.40;56.30
29403;DHT22;16382;59.942;30.472;2023-03-30T08:05:51;11.10;56.90
29403;DHT22;16382;59.942;30.472;2023-03-30T08:08:21;10.80;56.50
29403;DHT22;16382;59.942;30.472;2023-03-30T08:10:49;10.70;57.00
29403;DHT22;16382;59.942;30.472;2023-03-30T08:13:17;10.60;56.70
29403;DHT22;16382;59.942;30.472;2023-03-30T08:15:45;10.60;57.10
29403;DHT22;16382;59.942;30.472;2023-03-30T08:18:13;11.10;58.80
29403;DHT22;16382;59.942;30.472;2023-03-30T08:20:41;11.60;58.20
29403;DHT22;16382;59.942;30.472;2023-03-30T08:23:11;12.10;56.30
29403;DHT22;16382;59.942;30.472;2023-03-30T08:25:38;12.30;55.50
29403;DHT22;16382;59.942;30.472;2023-03-30T08:28:06;12.60;57.00
29403;DHT22;16382;59.942;30.472;2023-03-30T08:30:34;13.00;56.90
29403;DHT22;16382;59.942;30.472;2023-03-30T08:33:02;13.30;53.50
29403;DHT22;16382;59.942;30.472;2023-03-30T08:35:30;13.20;52.70
29403;DHT22;16382;59.942;30.472;2023-03-30T08:37:57;13.40;52.80
29403;DHT22;16382;59.942;30.472;2023-03-30T08:40:26;13.60;53.40
29403;DHT22;16382;59.942;30.472;2023-03-30T08:43:15;13.80;51.90
29403;DHT22;16382;59.942;30.472;2023-03-30T08:45:51;14.00;49.90
29403;DHT22;16382;59.942;30.472;2023-03-30T08:48:20;14.30;52.70
29403;DHT22;16382;59.942;30.472;2023-03-30T08:50:55;14.60;51.40
29403;DHT22;16382;59.942;30.472;2023-03-30T08:53:25;14.80;51.90
29403;DHT22;16382;59.942;30.472;2023-03-30T08:56:04;14.80;51.20
29403;DHT22;16382;59.942;30.472;2023-03-30T08:58:40;15.10;51.80
29403;DHT22;16382;59.942;30.472;2023-03-30T09:01:17;15.20;51.80
29403;DHT22;16382;59.942;30.472;2023-03-30T09:03:59;15.40;52.00
29403;DHT22;16382;59.942;30.472;2023-03-30T09:06:42;15.20;49.60
29403;DHT22;16382;59.942;30.472;2023-03-30T09:09:14;15.00;48.60
29403;DHT22;16382;59.942;30.472;2023-03-30T09:11:47;14.90;47.90
29403;DHT22;16382;59.942;30.472;2023-03-30T09:14:24;15.00;50.60
29403;DHT22;16382;59.942;30.472;2023-03-30T09:17:02;15.00;49.30
29403;DHT22;16382;59.942;30.472;2023-03-30T09:19:44;15.30;48.40
29403;DHT22;16382;59.942;30.472;2023-03-30T09:22:17;15.30;46.90
29403;DHT22;16382;59.942;30.472;2023-03-30T09:24:47;15.40;47.80
29403;DHT22;16382;59.942;30.472;2023-03-30T09:27:20;15.50;48.90
29403;DHT22;16382;59.942;30.472;2023-03-30T09:29:53;15.80;49.70
29403;DHT22;16382;59.942;30.472;2023-03-30T09:32:30;15.80;46.50
29403;DHT22;16382;59.942;30.472;2023-03-30T09:35:02;15.80;45.90
29403;DHT22;16382;59.942;30.472;2023-03-30T09:37:34;15.90;46.60
29403;DHT22;16382;59.942;30.472;2023-03-30T09:40:16;16.20;47.00
29403;DHT22;16382;59.942;30.472;2023-03-30T09:43:00;16.00;46.60
29403;DHT22;16382;59.942;30.472;2023-03-30T09:45:35;15.50;45.30
29403;DHT22;16382;59.942;30.472;2023-03-30T09:48:03;15.00;47.40
29403;DHT22;16382;59.942;30.472;2023-03-30T09:50:38;14.80;47.10
29403;DHT22;16382;59.942;30.472;2023-03-30T09:53:18;14.20;48.20
29403;DHT22;16382;59.942;30.472;2023-03-30T09:55:58;13.50;48.60
29403;DHT22;16382;59.942;30.472;2023-03-30T09:58:29;12.70;50.70
29403;DHT22;16382;59.942;30.472;2023-03-30T10:01:05;12.30;50.30
29403;DHT22;16382;59.942;30.472;2023-03-30T10:03:37;11.90;50.20
29403;DHT22;16382;59.942;30.472;2023-03-30T10:06:07;12.40;53.80
29403;DHT22;16382;59.942;30.472;2023-03-30T10:08:40;12.90;52.30
29403;DHT22;16382;59.942;30.472;2023-03-30T10:11:09;13.70;52.10
29403;DHT22;16382;59.942;30.472;2023-03-30T10:13:40;14.50;49.20
29403;DHT22;16382;59.942;30.472;2023-03-30T10:16:16;15.00;49.30
29403;DHT22;16382;59.942;30.472;2023-03-30T10:18:51;15.60;48.60
29403;DHT22;16382;59.942;30.472;2023-03-30T10:21:21;15.70;47.50
29403;DHT22;16382;59.942;30.472;2023-03-30T10:24:00;15.70;46.60
29403;DHT22;16382;59.942;30.472;2023-03-30T10:26:30;15.70;46.60
29403;DHT22;16382;59.942;30.472;2023-03-30T10:29:03;15.90;48.10
29403;DHT22;16382;59.942;30.472;2023-03-30T10:31:34;16.20;47.70
29403;DHT22;16382;59.942;30.472;2023-03-30T10:34:04;16.00;47.00
29403;DHT22;16382;59.942;30.472;2023-03-30T10:36:37;16.10;47.00
29403;DHT22;16382;59.942;30.472;2023-03-30T10:39:11;16.00;46.00
29403;DHT22;16382;59.942;30.472;2023-03-30T10:41:41;15.80;45.80
29403;DHT22;16382;59.942;30.472;2023-03-30T10:44:21;15.80;46.20
29403;DHT22;16382;59.942;30.472;2023-03-30T10:46:54;15.90;45.10
29403;DHT22;16382;59.942;30.472;2023-03-30T10:49:40;16.00;46.00
29403;DHT22;16382;59.942;30.472;2023-03-30T10:52:17;15.30;45.60
29403;DHT22;16382;59.942;30.472;2023-03-30T10:54:52;14.70;47.50
29403;DHT22;16382;59.942;30.472;2023-03-30T10:57:26;14.40;47.50
29403;DHT22;16382;59.942;30.472;2023-03-30T11:00:19;14.30;48.20
29403;DHT22;16382;59.942;30.472;2023-03-30T11:02:58;14.20;46.70
29403;DHT22;16382;59.942;30.472;2023-03-30T11:05:32;14.30;47.00
29403;DHT22;16382;59.942;30.472;2023-03-30T11:08:03;14.10;47.20
29403;DHT22;16382;59.942;30.472;2023-03-30T11:10:36;14.20;49.40
29403;DHT22;16382;59.942;30.472;2023-03-30T11:13:09;13.90;46.30
29403;DHT22;16382;59.942;30.472;2023-03-30T11:15:43;13.30;47.50
29403;DHT22;16382;59.942;30.472;2023-03-30T11:18:17;13.20;49.90
29403;DHT22;16382;59.942;30.472;2023-03-30T11:20:49;13.40;48.20
29403;DHT22;16382;59.942;30.472;2023-03-30T11:23:24;13.70;47.60
29403;DHT22;16382;59.942;30.472;2023-03-30T11:26:06;14.70;49.00
29403;DHT22;16382;59.942;30.472;2023-03-30T11:29:01;15.30;46.60
29403;DHT22;16382;59.942;30.472;2023-03-30T11:31:55;15.40;44.80
29403;DHT22;16382;59.942;30.472;2023-03-30T11:34:33;15.20;44.50
29403;DHT22;16382;59.942;30.472;2023-03-30T11:37:22;15.40;44.80
29403;DHT22;16382;59.942;30.472;2023-03-30T11:39:58;16.30;45.00
29403;DHT22;16382;59.942;30.472;2023-03-30T11:42:31;17.00;43.60
29403;DHT22;16382;59.942;30.472;2023-03-30T11:45:16;17.80;42.80
29403;DHT22;16382;59.942;30.472;2023-03-30T11:48:07;18.20;41.10
29403;DHT22;16382;59.942;30.472;2023-03-30T11:51:03;18.40;40.80
29403;DHT22;16382;59.942;30.472;2023-03-30T11:53:47;18.20;40.10
29403;DHT22;16382;59.942;30.472;2023-03-30T11:56:26;18.10;41.50
29403;DHT22;16382;59.942;30.472;2023-03-30T11:59:02;18.40;40.80
29403;DHT22;16382;59.942;30.472;2023-03-30T12:01:43;18.10;40.50
29403;DHT22;16382;59.942;30.472;2023-03-30T12:04:25;17.70;42.50
29403;DHT22;16382;59.942;30.472;2023-03-30T12:06:57;18.00;42.50
29403;DHT22;16382;59.942;30.472;2023-03-30T12:09:27;18.20;40.70
29403;DHT22;16382;59.942;30.472;2023-03-30T12:12:02;18.50;40.90
29403;DHT22;16382;59.942;30.472;2023-03-30T12:14:46;18.70;39.00
29403;DHT22;16382;59.942;30.472;2023-03-30T12:17:25;18.70;38.70
29403;DHT22;16382;59.942;30.472;2023-03-30T12:20:28;18.60;37.80
29403;DHT22;16382;59.942;30.472;2023-03-30T12:23:08;18.00;38.50
29403;DHT22;16382;59.942;30.472;2023-03-30T12:26:00;17.20;39.60
29403;DHT22;16382;59.942;30.472;2023-03-30T12:28:44;16.20;40.40
29403;DHT22;16382;59.942;30.472;2023-03-30T12:31:14;15.20;42.50
29403;DHT22;16382;59.942;30.472;2023-03-30T12:33:46;14.50;42.20
29403;DHT22;16382;59.942;30.472;2023-03-30T12:36:30;14.20;43.00
29403;DHT22;16382;59.942;30.472;2023-03-30T12:39:06;14.10;45.10
29403;DHT22;16382;59.942;30.472;2023-03-30T12:41:40;14.00;44.70
29403;DHT22;16382;59.942;30.472;2023-03-30T12:44:34;14.30;46.20
29403;DHT22;16382;59.942;30.472;2023-03-30T12:50:36;13.20;44.50
29403;DHT22;16382;59.942;30.472;2023-03-30T12:53:39;12.40;47.90
29403;DHT22;16382;59.942;30.472;2023-03-30T12:56:27;11.90;46.60
29403;DHT22;16382;59.942;30.472;2023-03-30T12:59:23;11.30;48.20
29403;DHT22;16382;59.942;30.472;2023-03-30T13:02:17;10.70;48.20
29403;DHT22;16382;59.942;30.472;2023-03-30T13:04:56;9.90;50.40
29403;DHT22;16382;59.942;30.472;2023-03-30T13:07:26;9.20;51.20
29403;DHT22;16382;59.942;30.472;2023-03-30T13:09:59;8.80;51.40
29403;DHT22;16382;59.942;30.472;2023-03-30T13:12:33;8.60;51.80
29403;DHT22;16382;59.942;30.472;2023-03-30T13:15:34;8.50;52.90
29403;DHT22;16382;59.942;30.472;2023-03-30T13:18:24;8.00;54.30
29403;DHT22;16382;59.942;30.472;2023-03-30T13:21:21;7.50;54.60
29403;DHT22;16382;59.942;30.472;2023-03-30T13:24:20;7.20;57.20
29403;DHT22;16382;59.942;30.472;2023-03-30T13:26:52;6.90;57.00
29403;DHT22;16382;59.942;30.472;2023-03-30T13:29:23;6.70;57.90
29403;DHT22;16382;59.942;30.472;2023-03-30T13:32:04;6.50;58.20
29403;DHT22;16382;59.942;30.472;2023-03-30T13:34:56;6.30;57.20
29403;DHT22;16382;59.942;30.472;2023-03-30T13:37:41;6.10;59.50
29403;DHT22;16382;59.942;30.472;2023-03-30T13:40:28;6.00;59.20
29403;DHT22;16382;59.942;30.472;2023-03-30T13:43:04;5.80;58.40
29403;DHT22;16382;59.942;30.472;2023-03-30T13:45:44;6.00;59.50
29403;DHT22;16382;59.942;30.472;2023-03-30T13:48:29;6.20;60.00
29403;DHT22;16382;59.942;30.472;2023-03-30T13:51:04;6.40;59.50
29403;DHT22;16382;59.942;30.472;2023-03-30T13:53:37;6.40;58.30
29403;DHT22;16382;59.942;30.472;2023-03-30T13:56:09;6.40;57.10
29403;DHT22;16382;59.942;30.472;2023-03-30T13:58:45;6.50;56.80
29403;DHT22;16382;59.942;30.472;2023-03-30T14:01:19;6.70;57.50
29403;DHT22;16382;59.942;30.472;2023-03-30T14:03:53;6.70;55.00
29403;DHT22;16382;59.942;30.472;2023-03-30T14:06:23;6.60;54.70
29403;DHT22;16382;59.942;30.472;2023-03-30T14:08:58;6.30;54.40
29403;DHT22;16382;59.942;30.472;2023-03-30T14:11:37;5.90;55.20
29403;DHT22;16382;59.942;30.472;2023-03-30T14:14:14;5.50;56.10
29403;DHT22;16382;59.942;30.472;2023-03-30T14:16:44;5.10;56.80
29403;DHT22;16382;59.942;30.472;2023-03-30T14:19:20;4.90;58.60
29403;DHT22;16382;59.942;30.472;2023-03-30T14:21:54;4.80;58.60
29403;DHT22;16382;59.942;30.472;2023-03-30T14:24:27;4.60;59.00
29403;DHT22;16382;59.942;30.472;2023-03-30T14:27:01;4.60;60.00
29403;DHT22;16382;59.942;30.472;2023-03-30T14:29:32;4.50;58.90
29403;DHT22;16382;59.942;30.472;2023-03-30T14:32:02;4.30;58.90
29403;DHT22;16382;59.942;30.472;2023-03-30T14:34:31;4.10;59.70
29403;DHT22;16382;59.942;30.472;2023-03-30T14:37:01;4.20;61.80
29403;DHT22;16382;59.942;30.472;2023-03-30T14:39:36;4.20;60.00
29403;DHT22;16382;59.942;30.472;2023-03-30T14:42:15;4.20;59.60
29403;DHT22;16382;59.942;30.472;2023-03-30T14:44:48;4.30;60.90
29403;DHT22;16382;59.942;30.472;2023-03-30T14:47:23;4.40;60.70
29403;DHT22;16382;59.942;30.472;2023-03-30T14:49:53;4.40;60.40
29403;DHT22;16382;59.942;30.472;2023-03-30T14:52:25;4.30;61.60
29403;DHT22;16382;59.942;30.472;2023-03-30T14:54:56;4.20;62.60
29403;DHT22;16382;59.942;30.472;2023-03-30T14:57:24;4.10;63.00
29403;DHT22;16382;59.942;30.472;2023-03-30T14:59:56;4.10;64.70
29403;DHT22;16382;59.942;30.472;2023-03-30T15:02:31;3.90;64.50
29403;DHT22;16382;59.942;30.472;2023-03-30T15:04:59;3.70;64.70
29403;DHT22;16382;59.942;30.472;2023-03-30T15:07:31;3.50;64.70
29403;DHT22;16382;59.942;30.472;2023-03-30T15:10:03;3.40;66.90
29403;DHT22;16382;59.942;30.472;2023-03-30T15:12:39;3.30;67.60
29403;DHT22;16382;59.942;30.472;2023-03-30T15:15:13;3.30;66.60
29403;DHT22;16382;59.942;30.472;2023-03-30T15:17:45;3.10;67.30
29403;DHT22;16382;59.942;30.472;2023-03-30T15:20:14;3.00;68.70
29403;DHT22;16382;59.942;30.472;2023-03-30T15:22:44;2.90;69.00
29403;DHT22;16382;59.942;30.472;2023-03-30T15:25:15;2.70;69.20
29403;DHT22;16382;59.942;30.472;2023-03-30T15:27:50;2.70;70.50
29403;DHT22;16382;59.942;30.472;2023-03-30T15:30:27;2.70;71.60
29403;DHT22;16382;59.942;30.472;2023-03-30T15:32:56;2.70;71.10
29403;DHT22;16382;59.942;30.472;2023-03-30T15:35:27;2.70;71.70
29403;DHT22;16382;59.942;30.472;2023-03-30T15:37:57;2.50;72.00
29403;DHT22;16382;59.942;30.472;2023-03-30T15:40:33;2.40;72.60
29403;DHT22;16382;59.942;30.472;2023-03-30T15:43:17;2.30;73.50
29403;DHT22;16382;59.942;30.472;2023-03-30T15:46:00;2.20;74.70
29403;DHT22;16382;59.942;30.472;2023-03-30T15:48:34;2.10;75.40
29403;DHT22;16382;59.942;30.472;2023-03-30T15:51:08;2.10;76.40
29403;DHT22;16382;59.942;30.472;2023-03-30T15:53:50;2.00;76.90
29403;DHT22;16382;59.942;30.472;2023-03-30T15:56:21;1.90;78.10
29403;DHT22;16382;59.942;30.472;2023-03-30T15:58:51;1.80;79.50
29403;DHT22;16382;59.942;30.472;2023-03-30T16:01:20;1.70;81.00
29403;DHT22;16382;59.942;30.472;2023-03-30T16:03:52;1.60;82.80
29403;DHT22;16382;59.942;30.472;2023-03-30T16:06:21;1.50;84.80
29403;DHT22;16382;59.942;30.472;2023-03-30T16:08:49;1.40;87.50
29403;DHT22;16382;59.942;30.472;2023-03-30T16:11:16;1.40;90.70
29403;DHT22;16382;59.942;30.472;2023-03-30T16:13:47;1.30;95.10
29403;DHT22;16382;59.942;30.472;2023-03-30T16:16:15;1.20;99.90
29403;DHT22;16382;59.942;30.472;2023-03-30T16:18:45;1.20;99.90
29403;DHT22;16382;59.942;30.472;2023-03-30T16:21:12;1.10;99.90
29403;DHT22;16382;59.942;30.472;2023-03-30T16:23:40;1.10;99.90
29403;DHT22;16382;59.942;30.472;2023-03-30T16:28:41;1.10;99.90
29403;DHT22;16382;59.942;30.472;2023-03-30T16:31:16;1.10;99.90